sensor_id;sensor_type;location;lat;lon;timestamp;P1;durP1;ratioP1;P2;durP2;ratioP2
10904;SDS011;5505;51.450;9.254;2023-08-17T04:55:25;12.50;;;11.27;;
10904;SDS011;5505;51.450;9.254;2023-08-17T04:58:12;12.63;;;11.37;;
10904;SDS011;5505;51.450;9.254;2023-08-17T05:00:59;12.90;;;11.57;;
10904;SDS011;5505;51.450;9.254;2023-08-17T05:03:46;12.30;;;11.07;;
10904;SDS011;5505;51.450;9.254;2023-08-17T05:06:33;12.93;;;11.63;;
10904;SDS011;5505;51.450;9.254;2023-08-17T05:09:19;13.93;;;12.30;;
10904;SDS011;5505;51.450;9.254;2023-08-17T05:12:08;16.70;;;11.73;;
10904;SDS011;5505;51.450;9.254;2023-08-17T05:14:54;13.73;;;12.00;;
10904;SDS011;5505;51.450;9.254;2023-08-17T05:17:41;17.10;;;12.77;;
10904;SDS011;5505;51.450;9.254;2023-08-17T05:20:28;15.60;;;12.77;;
10904;SDS011;5505;51.450;9.254;2023-08-17T05:23:15;14.67;;;13.10;;
10904;SDS011;5505;51.450;9.254;2023-08-17T05:26:02;18.83;;;13.33;;
10904;SDS011;5505;51.450;9.254;2023-08-17T05:28:50;17.33;;;13.07;;
10904;SDS011;5505;51.450;9.254;2023-08-17T05:31:37;18.53;;;14.10;;
10904;SDS011;5505;51.450;9.254;2023-08-17T05:34:23;15.27;;;13.43;;
10904;SDS011;5505;51.450;9.254;2023-08-17T05:37:10;17.27;;;13.80;;
10904;SDS011;5505;51.450;9.254;2023-08-17T05:39:57;18.23;;;14.37;;
10904;SDS011;5505;51.450;9.254;2023-08-17T05:42:44;15.93;;;12.57;;
10904;SDS011;5505;51.450;9.254;2023-08-17T05:45:32;18.87;;;14.33;;
10904;SDS011;5505;51.450;9.254;2023-08-17T05:48:21;19.93;;;14.63;;
10904;SDS011;5505;51.450;9.254;2023-08-17T05:51:08;17.77;;;14.33;;
10904;SDS011;5505;51.450;9.254;2023-08-17T05:53:55;16.33;;;13.17;;
10904;SDS011;5505;51.450;9.254;2023-08-17T05:56:42;18.37;;;14.97;;
10904;SDS011;5505;51.450;9.254;2023-08-17T05:59:31;21.07;;;15.33;;
10904;SDS011;5505;51.450;9.254;2023-08-17T06:02:19;19.43;;;14.77;;
10904;SDS011;5505;51.450;9.254;2023-08-17T06:05:06;16.87;;;13.93;;
10904;SDS011;5505;51.450;9.254;2023-08-17T06:07:54;20.10;;;15.00;;
10904;SDS011;5505;51.450;9.254;2023-08-17T06:10:41;17.83;;;14.63;;
10904;SDS011;5505;51.450;9.254;2023-08-17T06:13:27;22.50;;;14.23;;
10904;SDS011;5505;51.450;9.254;2023-08-17T06:16:14;19.27;;;13.97;;
10904;SDS011;5505;51.450;9.254;2023-08-17T06:19:03;20.27;;;14.07;;
10904;SDS011;5505;51.450;9.254;2023-08-17T06:21:50;17.87;;;14.10;;
10904;SDS011;5505;51.450;9.254;2023-08-17T06:24:36;20.30;;;13.63;;
10904;SDS011;5505;51.450;9.254;2023-08-17T06:27:23;18.97;;;14.30;;
10904;SDS011;5505;51.450;9.254;2023-08-17T06:30:10;22.67;;;16.27;;
10904;SDS011;5505;51.450;9.254;2023-08-17T06:32:58;23.40;;;14.77;;
10904;SDS011;5505;51.450;9.254;2023-08-17T06:35:46;17.07;;;13.73;;
10904;SDS011;5505;51.450;9.254;2023-08-17T06:38:33;18.37;;;14.37;;
10904;SDS011;5505;51.450;9.254;2023-08-17T06:41:20;16.73;;;13.43;;
10904;SDS011;5505;51.450;9.254;2023-08-17T06:44:06;23.97;;;14.20;;
10904;SDS011;5505;51.450;9.254;2023-08-17T06:46:53;14.80;;;13.33;;
10904;SDS011;5505;51.450;9.254;2023-08-17T06:49:40;23.27;;;13.90;;
10904;SDS011;5505;51.450;9.254;2023-08-17T06:52:28;22.43;;;14.87;;
10904;SDS011;5505;51.450;9.254;2023-08-17T06:55:15;16.90;;;13.90;;
10904;SDS011;5505;51.450;9.254;2023-08-17T06:58:02;31.00;;;14.53;;
10904;SDS011;5505;51.450;9.254;2023-08-17T07:00:49;15.50;;;13.33;;
10904;SDS011;5505;51.450;9.254;2023-08-17T07:03:36;21.13;;;14.20;;
10904;SDS011;5505;51.450;9.254;2023-08-17T07:06:23;30.23;;;15.67;;
10904;SDS011;5505;51.450;9.254;2023-08-17T07:09:11;20.60;;;14.87;;
10904;SDS011;5505;51.450;9.254;2023-08-17T07:11:58;21.57;;;14.43;;
10904;SDS011;5505;51.450;9.254;2023-08-17T07:14:45;25.30;;;16.20;;
10904;SDS011;5505;51.450;9.254;2023-08-17T07:17:31;21.57;;;15.27;;
10904;SDS011;5505;51.450;9.254;2023-08-17T07:20:19;23.50;;;14.87;;
10904;SDS011;5505;51.450;9.254;2023-08-17T07:23:05;21.60;;;13.70;;
10904;SDS011;5505;51.450;9.254;2023-08-17T07:25:53;24.43;;;14.10;;
10904;SDS011;5505;51.450;9.254;2023-08-17T07:28:40;18.40;;;14.03;;
10904;SDS011;5505;51.450;9.254;2023-08-17T07:31:27;19.43;;;14.30;;
10904;SDS011;5505;51.450;9.254;2023-08-17T07:34:14;23.03;;;15.53;;
10904;SDS011;5505;51.450;9.254;2023-08-17T07:37:00;21.43;;;15.37;;
10904;SDS011;5505;51.450;9.254;2023-08-17T07:39:47;23.97;;;15.13;;
10904;SDS011;5505;51.450;9.254;2023-08-17T07:42:35;21.03;;;13.73;;
10904;SDS011;5505;51.450;9.254;2023-08-17T07:45:23;21.10;;;13.47;;
10904;SDS011;5505;51.450;9.254;2023-08-17T07:48:09;18.97;;;12.80;;
10904;SDS011;5505;51.450;9.254;2023-08-17T07:50:56;15.17;;;11.67;;
10904;SDS011;5505;51.450;9.254;2023-08-17T07:53:43;14.57;;;12.37;;
10904;SDS011;5505;51.450;9.254;2023-08-17T07:56:30;18.00;;;12.93;;
10904;SDS011;5505;51.450;9.254;2023-08-17T07:59:18;17.57;;;11.93;;
10904;SDS011;5505;51.450;9.254;2023-08-17T08:02:04;17.70;;;12.10;;
10904;SDS011;5505;51.450;9.254;2023-08-17T08:04:52;16.80;;;12.17;;
10904;SDS011;5505;51.450;9.254;2023-08-17T08:07:38;16.40;;;12.70;;
10904;SDS011;5505;51.450;9.254;2023-08-17T08:10:26;19.57;;;13.37;;
10904;SDS011;5505;51.450;9.254;2023-08-17T08:13:13;18.50;;;12.60;;
10904;SDS011;5505;51.450;9.254;2023-08-17T08:16:01;17.13;;;12.60;;
10904;SDS011;5505;51.450;9.254;2023-08-17T08:18:48;15.83;;;13.10;;
10904;SDS011;5505;51.450;9.254;2023-08-17T08:21:35;15.50;;;12.20;;
10904;SDS011;5505;51.450;9.254;2023-08-17T08:24:21;15.47;;;12.53;;
10904;SDS011;5505;51.450;9.254;2023-08-17T08:27:08;16.63;;;12.37;;
10904;SDS011;5505;51.450;9.254;2023-08-17T08:29:55;16.57;;;12.13;;
10904;SDS011;5505;51.450;9.254;2023-08-17T08:32:43;15.73;;;11.80;;
10904;SDS011;5505;51.450;9.254;2023-08-17T08:35:30;16.40;;;12.07;;
10904;SDS011;5505;51.450;9.254;2023-08-17T08:38:17;14.27;;;11.67;;
10904;SDS011;5505;51.450;9.254;2023-08-17T08:41:03;16.27;;;11.90;;
10904;SDS011;5505;51.450;9.254;2023-08-17T08:43:54;17.23;;;11.50;;
10904;SDS011;5505;51.450;9.254;2023-08-17T08:46:40;14.13;;;11.00;;
10904;SDS011;5505;51.450;9.254;2023-08-17T08:49:32;18.13;;;12.33;;
10904;SDS011;5505;51.450;9.254;2023-08-17T08:52:24;16.33;;;12.13;;
10904;SDS011;5505;51.450;9.254;2023-08-17T08:55:18;13.80;;;11.10;;
10904;SDS011;5505;51.450;9.254;2023-08-17T08:58:07;12.87;;;11.33;;
10904;SDS011;5505;51.450;9.254;2023-08-17T09:00:54;13.63;;;11.20;;
10904;SDS011;5505;51.450;9.254;2023-08-17T09:03:42;13.93;;;11.03;;
10904;SDS011;5505;51.450;9.254;2023-08-17T09:06:33;16.23;;;11.13;;
10904;SDS011;5505;51.450;9.254;2023-08-17T09:09:20;12.40;;;10.17;;
10904;SDS011;5505;51.450;9.254;2023-08-17T09:12:07;13.67;;;10.13;;
10904;SDS011;5505;51.450;9.254;2023-08-17T09:14:55;11.03;;;9.33;;
10904;SDS011;5505;51.450;9.254;2023-08-17T09:17:42;11.83;;;9.70;;
10904;SDS011;5505;51.450;9.254;2023-08-17T09:20:36;13.27;;;10.07;;
10904;SDS011;5505;51.450;9.254;2023-08-17T09:23:25;11.50;;;10.27;;
10904;SDS011;5505;51.450;9.254;2023-08-17T09:26:12;11.07;;;8.97;;
10904;SDS011;5505;51.450;9.254;2023-08-17T09:28:59;12.53;;;9.07;;
10904;SDS011;5505;51.450;9.254;2023-08-17T09:31:47;10.37;;;8.47;;
10904;SDS011;5505;51.450;9.254;2023-08-17T09:34:33;11.17;;;9.37;;
10904;SDS011;5505;51.450;9.254;2023-08-17T09:37:20;10.60;;;9.40;;
10904;SDS011;5505;51.450;9.254;2023-08-17T09:40:09;11.40;;;9.77;;
10904;SDS011;5505;51.450;9.254;2023-08-17T09:42:56;10.73;;;9.63;;
10904;SDS011;5505;51.450;9.254;2023-08-17T09:45:43;10.83;;;9.73;;
10904;SDS011;5505;51.450;9.254;2023-08-17T09:48:31;9.63;;;8.70;;
10904;SDS011;5505;51.450;9.254;2023-08-17T09:51:20;10.47;;;8.53;;
10904;SDS011;5505;51.450;9.254;2023-08-17T09:54:06;10.80;;;9.10;;
10904;SDS011;5505;51.450;9.254;2023-08-17T09:56:55;12.03;;;8.83;;
10904;SDS011;5505;51.450;9.254;2023-08-17T09:59:42;9.33;;;8.40;;
10904;SDS011;5505;51.450;9.254;2023-08-17T10:02:29;9.20;;;7.73;;
10904;SDS011;5505;51.450;9.254;2023-08-17T10:05:17;8.67;;;7.83;;
10904;SDS011;5505;51.450;9.254;2023-08-17T10:08:05;7.57;;;6.73;;
10904;SDS011;5505;51.450;9.254;2023-08-17T10:10:53;7.27;;;6.60;;
10904;SDS011;5505;51.450;9.254;2023-08-17T10:13:52;7.77;;;7.00;;
10904;SDS011;5505;51.450;9.254;2023-08-17T10:16:43;7.67;;;6.50;;
10904;SDS011;5505;51.450;9.254;2023-08-17T10:19:33;7.27;;;6.50;;
10904;SDS011;5505;51.450;9.254;2023-08-17T10:22:26;6.67;;;5.93;;
10904;SDS011;5505;51.450;9.254;2023-08-17T10:25:17;5.90;;;5.30;;
10904;SDS011;5505;51.450;9.254;2023-08-17T10:28:05;5.27;;;4.87;;
10904;SDS011;5505;51.450;9.254;2023-08-17T10:30:54;6.07;;;5.60;;
10904;SDS011;5505;51.450;9.254;2023-08-17T10:33:41;5.80;;;5.03;;
10904;SDS011;5505;51.450;9.254;2023-08-17T10:36:31;5.23;;;4.73;;
10904;SDS011;5505;51.450;9.254;2023-08-17T10:39:19;5.60;;;5.10;;
10904;SDS011;5505;51.450;9.254;2023-08-17T10:42:07;8.07;;;4.77;;
10904;SDS011;5505;51.450;9.254;2023-08-17T10:44:54;5.70;;;5.20;;
10904;SDS011;5505;51.450;9.254;2023-08-17T10:47:42;4.77;;;4.37;;
10904;SDS011;5505;51.450;9.254;2023-08-17T10:50:28;4.93;;;4.53;;
10904;SDS011;5505;51.450;9.254;2023-08-17T10:53:15;4.93;;;4.50;;
10904;SDS011;5505;51.450;9.254;2023-08-17T10:56:03;4.57;;;4.17;;
10904;SDS011;5505;51.450;9.254;2023-08-17T10:58:53;6.13;;;4.10;;
10904;SDS011;5505;51.450;9.254;2023-08-17T11:01:40;4.20;;;3.83;;
10904;SDS011;5505;51.450;9.254;2023-08-17T11:04:32;3.97;;;3.67;;
10904;SDS011;5505;51.450;9.254;2023-08-17T11:07:19;4.10;;;3.80;;
10904;SDS011;5505;51.450;9.254;2023-08-17T11:10:12;3.80;;;3.50;;
10904;SDS011;5505;51.450;9.254;2023-08-17T11:13:13;4.33;;;3.80;;
10904;SDS011;5505;51.450;9.254;2023-08-17T11:16:00;4.87;;;4.33;;
10904;SDS011;5505;51.450;9.254;2023-08-17T11:18:49;4.00;;;3.70;;
10904;SDS011;5505;51.450;9.254;2023-08-17T11:21:37;4.30;;;3.90;;
10904;SDS011;5505;51.450;9.254;2023-08-17T11:24:24;4.00;;;3.60;;
10904;SDS011;5505;51.450;9.254;2023-08-17T11:27:12;3.37;;;3.17;;
10904;SDS011;5505;51.450;9.254;2023-08-17T11:29:58;3.17;;;2.70;;
10904;SDS011;5505;51.450;9.254;2023-08-17T11:32:45;6.87;;;3.53;;
10904;SDS011;5505;51.450;9.254;2023-08-17T11:35:32;3.33;;;2.73;;
10904;SDS011;5505;51.450;9.254;2023-08-17T11:38:20;3.30;;;2.90;;
10904;SDS011;5505;51.450;9.254;2023-08-17T11:41:07;3.00;;;2.70;;
10904;SDS011;5505;51.450;9.254;2023-08-17T11:43:54;2.83;;;2.63;;
10904;SDS011;5505;51.450;9.254;2023-08-17T11:46:41;2.83;;;2.63;;
10904;SDS011;5505;51.450;9.254;2023-08-17T11:49:30;2.87;;;2.50;;
10904;SDS011;5505;51.450;9.254;2023-08-17T11:52:16;2.50;;;2.33;;
10904;SDS011;5505;51.450;9.254;2023-08-17T11:55:05;4.50;;;2.37;;
10904;SDS011;5505;51.450;9.254;2023-08-17T11:57:53;2.57;;;2.37;;
10904;SDS011;5505;51.450;9.254;2023-08-17T12:00:40;2.67;;;2.47;;
10904;SDS011;5505;51.450;9.254;2023-08-17T12:03:30;2.43;;;2.20;;
10904;SDS011;5505;51.450;9.254;2023-08-17T12:06:18;2.60;;;2.40;;
10904;SDS011;5505;51.450;9.254;2023-08-17T12:09:04;2.20;;;2.00;;
10904;SDS011;5505;51.450;9.254;2023-08-17T12:11:56;2.30;;;2.10;;
10904;SDS011;5505;51.450;9.254;2023-08-17T12:14:46;1.90;;;1.80;;
10904;SDS011;5505;51.450;9.254;2023-08-17T12:17:33;1.90;;;1.80;;
10904;SDS011;5505;51.450;9.254;2023-08-17T12:20:20;2.00;;;1.80;;
10904;SDS011;5505;51.450;9.254;2023-08-17T12:23:07;2.10;;;1.90;;
10904;SDS011;5505;51.450;9.254;2023-08-17T12:25:54;3.10;;;2.10;;
10904;SDS011;5505;51.450;9.254;2023-08-17T12:28:43;2.10;;;1.90;;
10904;SDS011;5505;51.450;9.254;2023-08-17T12:31:29;1.70;;;1.60;;
10904;SDS011;5505;51.450;9.254;2023-08-17T12:34:16;2.47;;;1.50;;
10904;SDS011;5505;51.450;9.254;2023-08-17T12:37:03;1.93;;;1.83;;
10904;SDS011;5505;51.450;9.254;2023-08-17T12:39:50;1.70;;;1.60;;
10904;SDS011;5505;51.450;9.254;2023-08-17T12:42:37;1.57;;;1.50;;
10904;SDS011;5505;51.450;9.254;2023-08-17T12:45:25;1.70;;;1.60;;
10904;SDS011;5505;51.450;9.254;2023-08-17T12:48:12;1.20;;;1.20;;
10904;SDS011;5505;51.450;9.254;2023-08-17T12:50:58;1.27;;;1.17;;
10904;SDS011;5505;51.450;9.254;2023-08-17T12:53:45;1.33;;;1.23;;
10904;SDS011;5505;51.450;9.254;2023-08-17T12:56:32;1.60;;;1.50;;
10904;SDS011;5505;51.450;9.254;2023-08-17T12:59:19;1.23;;;1.23;;
10904;SDS011;5505;51.450;9.254;2023-08-17T13:02:07;1.93;;;1.50;;
10904;SDS011;5505;51.450;9.254;2023-08-17T13:04:53;2.87;;;1.83;;
10904;SDS011;5505;51.450;9.254;2023-08-17T13:07:40;1.10;;;1.10;;
10904;SDS011;5505;51.450;9.254;2023-08-17T13:10:27;1.63;;;1.40;;
10904;SDS011;5505;51.450;9.254;2023-08-17T13:13:14;1.20;;;1.20;;
10904;SDS011;5505;51.450;9.254;2023-08-17T13:16:01;1.50;;;1.40;;
10904;SDS011;5505;51.450;9.254;2023-08-17T13:18:49;1.37;;;1.20;;
10904;SDS011;5505;51.450;9.254;2023-08-17T13:21:36;1.23;;;1.13;;
10904;SDS011;5505;51.450;9.254;2023-08-17T13:24:23;1.20;;;1.10;;
10904;SDS011;5505;51.450;9.254;2023-08-17T13:27:10;1.53;;;1.27;;
10904;SDS011;5505;51.450;9.254;2023-08-17T13:29:56;1.40;;;1.30;;
10904;SDS011;5505;51.450;9.254;2023-08-17T13:32:44;1.77;;;1.30;;
10904;SDS011;5505;51.450;9.254;2023-08-17T13:35:32;1.63;;;1.17;;
10904;SDS011;5505;51.450;9.254;2023-08-17T13:38:19;1.40;;;1.30;;
10904;SDS011;5505;51.450;9.254;2023-08-17T13:41:06;1.47;;;1.13;;
10904;SDS011;5505;51.450;9.254;2023-08-17T13:43:52;2.43;;;1.30;;
10904;SDS011;5505;51.450;9.254;2023-08-17T13:46:40;1.23;;;1.13;;
10904;SDS011;5505;51.450;9.254;2023-08-17T13:49:27;1.83;;;1.40;;
10904;SDS011;5505;51.450;9.254;2023-08-17T13:52:15;4.10;;;1.20;;
10904;SDS011;5505;51.450;9.254;2023-08-17T13:55:02;1.47;;;1.30;;
10904;SDS011;5505;51.450;9.254;2023-08-17T13:57:49;1.40;;;1.30;;
10904;SDS011;5505;51.450;9.254;2023-08-17T14:00:37;1.40;;;1.30;;
10904;SDS011;5505;51.450;9.254;2023-08-17T14:03:24;1.73;;;1.30;;
10904;SDS011;5505;51.450;9.254;2023-08-17T14:06:11;1.30;;;1.20;;
10904;SDS011;5505;51.450;9.254;2023-08-17T14:08:59;1.07;;;1.07;;
10904;SDS011;5505;51.450;9.254;2023-08-17T14:11:47;1.40;;;1.30;;
10904;SDS011;5505;51.450;9.254;2023-08-17T14:14:34;1.70;;;1.60;;
10904;SDS011;5505;51.450;9.254;2023-08-17T14:17:21;1.37;;;1.27;;
10904;SDS011;5505;51.450;9.254;2023-08-17T14:20:08;1.80;;;1.23;;
10904;SDS011;5505;51.450;9.254;2023-08-17T14:22:55;1.37;;;1.27;;
10904;SDS011;5505;51.450;9.254;2023-08-17T14:25:43;1.00;;;1.00;;
10904;SDS011;5505;51.450;9.254;2023-08-17T14:28:30;1.47;;;1.37;;
10904;SDS011;5505;51.450;9.254;2023-08-17T14:31:17;1.50;;;1.40;;
10904;SDS011;5505;51.450;9.254;2023-08-17T14:34:04;1.30;;;1.13;;
10904;SDS011;5505;51.450;9.254;2023-08-17T14:36:51;1.10;;;1.10;;
10904;SDS011;5505;51.450;9.254;2023-08-17T14:39:38;1.30;;;1.17;;
10904;SDS011;5505;51.450;9.254;2023-08-17T14:42:26;1.60;;;1.50;;
10904;SDS011;5505;51.450;9.254;2023-08-17T14:45:14;1.57;;;1.47;;
10904;SDS011;5505;51.450;9.254;2023-08-17T14:48:01;1.40;;;1.30;;
10904;SDS011;5505;51.450;9.254;2023-08-17T14:50:48;1.40;;;1.30;;
10904;SDS011;5505;51.450;9.254;2023-08-17T14:53:35;1.67;;;1.30;;
10904;SDS011;5505;51.450;9.254;2023-08-17T14:56:22;1.60;;;1.50;;
10904;SDS011;5505;51.450;9.254;2023-08-17T14:59:10;2.17;;;1.37;;
10904;SDS011;5505;51.450;9.254;2023-08-17T15:01:56;1.30;;;1.20;;
10904;SDS011;5505;51.450;9.254;2023-08-17T15:04:43;1.90;;;1.30;;
10904;SDS011;5505;51.450;9.254;2023-08-17T15:07:30;1.77;;;1.10;;
10904;SDS011;5505;51.450;9.254;2023-08-17T15:10:17;1.43;;;1.30;;
10904;SDS011;5505;51.450;9.254;2023-08-17T15:13:03;1.40;;;1.00;;
10904;SDS011;5505;51.450;9.254;2023-08-17T15:15:52;1.10;;;1.10;;
10904;SDS011;5505;51.450;9.254;2023-08-17T15:18:39;1.20;;;1.20;;
10904;SDS011;5505;51.450;9.254;2023-08-17T15:21:25;1.20;;;1.10;;
10904;SDS011;5505;51.450;9.254;2023-08-17T15:24:12;1.80;;;1.37;;
10904;SDS011;5505;51.450;9.254;2023-08-17T15:26:59;1.10;;;1.00;;
10904;SDS011;5505;51.450;9.254;2023-08-17T15:29:46;1.20;;;1.20;;
10904;SDS011;5505;51.450;9.254;2023-08-17T15:32:34;1.03;;;1.00;;
10904;SDS011;5505;51.450;9.254;2023-08-17T15:35:21;0.90;;;0.90;;
10904;SDS011;5505;51.450;9.254;2023-08-17T15:38:08;1.73;;;1.17;;
10904;SDS011;5505;51.450;9.254;2023-08-17T15:40:55;1.10;;;1.00;;
10904;SDS011;5505;51.450;9.254;2023-08-17T15:43:41;1.23;;;1.07;;
10904;SDS011;5505;51.450;9.254;2023-08-17T15:46:28;1.80;;;1.07;;
10904;SDS011;5505;51.450;9.254;2023-08-17T15:49:16;2.47;;;1.20;;
10904;SDS011;5505;51.450;9.254;2023-08-17T15:52:03;1.40;;;1.30;;
10904;SDS011;5505;51.450;9.254;2023-08-17T15:54:50;1.53;;;1.13;;
10904;SDS011;5505;51.450;9.254;2023-08-17T15:57:37;1.30;;;1.30;;
10904;SDS011;5505;51.450;9.254;2023-08-17T16:00:24;1.70;;;1.33;;
10904;SDS011;5505;51.450;9.254;2023-08-17T16:03:11;2.17;;;1.50;;
10904;SDS011;5505;51.450;9.254;2023-08-17T16:05:59;1.50;;;1.40;;
10904;SDS011;5505;51.450;9.254;2023-08-17T16:08:45;1.63;;;1.20;;
10904;SDS011;5505;51.450;9.254;2023-08-17T16:11:32;1.27;;;1.27;;
10904;SDS011;5505;51.450;9.254;2023-08-17T16:14:19;1.70;;;1.60;;
10904;SDS011;5505;51.450;9.254;2023-08-17T16:17:06;1.70;;;1.60;;
10904;SDS011;5505;51.450;9.254;2023-08-17T16:19:53;2.70;;;1.77;;
10904;SDS011;5505;51.450;9.254;2023-08-17T16:22:41;1.80;;;1.70;;
10904;SDS011;5505;51.450;9.254;2023-08-17T16:25:28;1.90;;;1.80;;
10904;SDS011;5505;51.450;9.254;2023-08-17T16:28:17;2.07;;;1.97;;
10904;SDS011;5505;51.450;9.254;2023-08-17T16:31:04;3.70;;;2.30;;
10904;SDS011;5505;51.450;9.254;2023-08-17T16:33:50;2.30;;;2.20;;
10904;SDS011;5505;51.450;9.254;2023-08-17T16:36:37;2.20;;;2.00;;
10904;SDS011;5505;51.450;9.254;2023-08-17T16:39:25;3.93;;;2.10;;
10904;SDS011;5505;51.450;9.254;2023-08-17T16:42:12;1.90;;;1.80;;
10904;SDS011;5505;51.450;9.254;2023-08-17T16:44:59;2.40;;;2.30;;
10904;SDS011;5505;51.450;9.254;2023-08-17T16:47:46;2.57;;;2.37;;
10904;SDS011;5505;51.450;9.254;2023-08-17T16:50:33;2.87;;;2.53;;
10904;SDS011;5505;51.450;9.254;2023-08-17T16:53:19;2.83;;;2.40;;
10904;SDS011;5505;51.450;9.254;2023-08-17T16:56:07;2.80;;;2.60;;
10904;SDS011;5505;51.450;9.254;2023-08-17T16:58:54;3.30;;;2.17;;
10904;SDS011;5505;51.450;9.254;2023-08-17T17:01:41;3.63;;;2.23;;
10904;SDS011;5505;51.450;9.254;2023-08-17T17:04:28;2.40;;;2.20;;
10904;SDS011;5505;51.450;9.254;2023-08-17T17:07:15;1.80;;;1.70;;
10904;SDS011;5505;51.450;9.254;2023-08-17T17:10:02;1.87;;;1.77;;
10904;SDS011;5505;51.450;9.254;2023-08-17T17:12:51;1.73;;;1.63;;
10904;SDS011;5505;51.450;9.254;2023-08-17T17:15:37;2.10;;;1.90;;
10904;SDS011;5505;51.450;9.254;2023-08-17T17:18:24;2.17;;;2.03;;
10904;SDS011;5505;51.450;9.254;2023-08-17T17:21:11;1.90;;;1.80;;
10904;SDS011;5505;51.450;9.254;2023-08-17T17:23:58;5.03;;;2.10;;
10904;SDS011;5505;51.450;9.254;2023-08-17T17:26:44;1.80;;;1.70;;
10904;SDS011;5505;51.450;9.254;2023-08-17T17:29:33;2.27;;;1.90;;
10904;SDS011;5505;51.450;9.254;2023-08-17T17:32:20;2.30;;;2.20;;
10904;SDS011;5505;51.450;9.254;2023-08-17T17:35:06;2.10;;;2.00;;
10904;SDS011;5505;51.450;9.254;2023-08-17T17:37:53;2.90;;;2.70;;
10904;SDS011;5505;51.450;9.254;2023-08-17T17:40:40;2.83;;;2.60;;
10904;SDS011;5505;51.450;9.254;2023-08-17T17:43:27;3.77;;;3.53;;
10904;SDS011;5505;51.450;9.254;2023-08-17T17:46:15;3.47;;;3.20;;
10904;SDS011;5505;51.450;9.254;2023-08-17T17:49:03;3.70;;;3.40;;
10904;SDS011;5505;51.450;9.254;2023-08-17T17:51:50;4.30;;;4.00;;
10904;SDS011;5505;51.450;9.254;2023-08-17T17:54:37;6.17;;;3.80;;
10904;SDS011;5505;51.450;9.254;2023-08-17T17:57:24;3.50;;;3.20;;
10904;SDS011;5505;51.450;9.254;2023-08-17T18:00:11;5.20;;;3.90;;
10904;SDS011;5505;51.450;9.254;2023-08-17T18:03:03;4.00;;;3.60;;
10904;SDS011;5505;51.450;9.254;2023-08-17T18:05:54;3.97;;;3.60;;
10904;SDS011;5505;51.450;9.254;2023-08-17T18:08:41;4.10;;;3.80;;
10904;SDS011;5505;51.450;9.254;2023-08-17T18:11:28;3.83;;;3.63;;
10904;SDS011;5505;51.450;9.254;2023-08-17T18:14:15;4.70;;;4.30;;
10904;SDS011;5505;51.450;9.254;2023-08-17T18:17:04;4.27;;;3.97;;
10904;SDS011;5505;51.450;9.254;2023-08-17T18:19:52;3.90;;;3.60;;
10904;SDS011;5505;51.450;9.254;2023-08-17T18:22:39;5.43;;;5.03;;
10904;SDS011;5505;51.450;9.254;2023-08-17T18:25:26;5.17;;;4.60;;
10904;SDS011;5505;51.450;9.254;2023-08-17T18:28:14;4.83;;;4.43;;
10904;SDS011;5505;51.450;9.254;2023-08-17T18:31:01;5.63;;;4.50;;
10904;SDS011;5505;51.450;9.254;2023-08-17T18:33:48;5.67;;;5.27;;
10904;SDS011;5505;51.450;9.254;2023-08-17T18:36:36;6.27;;;5.73;;
10904;SDS011;5505;51.450;9.254;2023-08-17T18:39:23;7.13;;;6.53;;
10904;SDS011;5505;51.450;9.254;2023-08-17T18:42:10;8.70;;;7.57;;
10904;SDS011;5505;51.450;9.254;2023-08-17T18:44:56;8.30;;;7.60;;
10904;SDS011;5505;51.450;9.254;2023-08-17T18:47:43;8.30;;;7.60;;
10904;SDS011;5505;51.450;9.254;2023-08-17T18:50:31;8.87;;;7.97;;
10904;SDS011;5505;51.450;9.254;2023-08-17T18:53:19;8.07;;;7.33;;
10904;SDS011;5505;51.450;9.254;2023-08-17T18:56:06;8.70;;;8.00;;
10904;SDS011;5505;51.450;9.254;2023-08-17T18:58:53;8.17;;;7.47;;
10904;SDS011;5505;51.450;9.254;2023-08-17T19:01:42;10.60;;;8.30;;
10904;SDS011;5505;51.450;9.254;2023-08-17T19:04:28;9.10;;;8.20;;
10904;SDS011;5505;51.450;9.254;2023-08-17T19:07:15;11.10;;;8.40;;
10904;SDS011;5505;51.450;9.254;2023-08-17T19:10:04;9.63;;;8.30;;
10904;SDS011;5505;51.450;9.254;2023-08-17T19:12:52;9.73;;;8.33;;
10904;SDS011;5505;51.450;9.254;2023-08-17T19:15:39;9.80;;;8.77;;
10904;SDS011;5505;51.450;9.254;2023-08-17T19:18:25;9.27;;;8.37;;
10904;SDS011;5505;51.450;9.254;2023-08-17T19:21:12;9.23;;;8.43;;
10904;SDS011;5505;51.450;9.254;2023-08-17T19:23:59;9.53;;;8.63;;
10904;SDS011;5505;51.450;9.254;2023-08-17T19:26:47;8.93;;;8.03;;
10904;SDS011;5505;51.450;9.254;2023-08-17T19:29:34;11.80;;;8.47;;
10904;SDS011;5505;51.450;9.254;2023-08-17T19:32:20;9.90;;;8.97;;
10904;SDS011;5505;51.450;9.254;2023-08-17T19:35:07;11.27;;;10.20;;
10904;SDS011;5505;51.450;9.254;2023-08-17T19:37:55;11.43;;;10.43;;
10904;SDS011;5505;51.450;9.254;2023-08-17T19:40:42;11.27;;;10.07;;
10904;SDS011;5505;51.450;9.254;2023-08-17T19:43:32;11.70;;;10.00;;
10904;SDS011;5505;51.450;9.254;2023-08-17T19:46:19;12.40;;;10.60;;
10904;SDS011;5505;51.450;9.254;2023-08-17T19:49:07;11.83;;;10.63;;
10904;SDS011;5505;51.450;9.254;2023-08-17T19:51:54;11.63;;;9.70;;
10904;SDS011;5505;51.450;9.254;2023-08-17T19:54:41;13.87;;;12.50;;
10904;SDS011;5505;51.450;9.254;2023-08-17T19:57:32;12.87;;;11.37;;
10904;SDS011;5505;51.450;9.254;2023-08-17T20:00:20;16.47;;;12.60;;
10904;SDS011;5505;51.450;9.254;2023-08-17T20:03:07;14.30;;;12.90;;
10904;SDS011;5505;51.450;9.254;2023-08-17T20:05:55;14.13;;;12.83;;
10904;SDS011;5505;51.450;9.254;2023-08-17T20:08:41;15.57;;;14.10;;
10904;SDS011;5505;51.450;9.254;2023-08-17T20:11:29;16.00;;;14.40;;
10904;SDS011;5505;51.450;9.254;2023-08-17T20:14:17;16.10;;;14.53;;
10904;SDS011;5505;51.450;9.254;2023-08-17T20:17:05;16.10;;;14.47;;
10904;SDS011;5505;51.450;9.254;2023-08-17T20:19:52;18.50;;;16.57;;
10904;SDS011;5505;51.450;9.254;2023-08-17T20:22:39;17.67;;;15.97;;
10904;SDS011;5505;51.450;9.254;2023-08-17T20:25:27;19.47;;;17.47;;
10904;SDS011;5505;51.450;9.254;2023-08-17T20:28:14;19.23;;;17.23;;
10904;SDS011;5505;51.450;9.254;2023-08-17T20:31:00;20.37;;;18.17;;
10904;SDS011;5505;51.450;9.254;2023-08-17T20:33:49;19.50;;;17.60;;
10904;SDS011;5505;51.450;9.254;2023-08-17T20:36:38;19.43;;;17.37;;
10904;SDS011;5505;51.450;9.254;2023-08-17T20:39:24;19.87;;;17.80;;
10904;SDS011;5505;51.450;9.254;2023-08-17T20:42:11;21.37;;;19.17;;
10904;SDS011;5505;51.450;9.254;2023-08-17T20:44:58;19.33;;;17.53;;
10904;SDS011;5505;51.450;9.254;2023-08-17T20:47:45;18.80;;;16.80;;
10904;SDS011;5505;51.450;9.254;2023-08-17T20:50:36;20.77;;;18.57;;
10904;SDS011;5505;51.450;9.254;2023-08-17T20:53:23;22.53;;;19.30;;
10904;SDS011;5505;51.450;9.254;2023-08-17T20:56:10;20.77;;;18.50;;
10904;SDS011;5505;51.450;9.254;2023-08-17T20:58:57;23.53;;;18.73;;
10904;SDS011;5505;51.450;9.254;2023-08-17T21:01:44;21.10;;;18.30;;
10904;SDS011;5505;51.450;9.254;2023-08-17T21:04:31;20.63;;;18.53;;
10904;SDS011;5505;51.450;9.254;2023-08-17T21:07:20;20.77;;;18.63;;
10904;SDS011;5505;51.450;9.254;2023-08-17T21:10:07;22.67;;;19.40;;
10904;SDS011;5505;51.450;9.254;2023-08-17T21:12:54;24.90;;;19.77;;
10904;SDS011;5505;51.450;9.254;2023-08-17T21:15:41;21.10;;;18.90;;
10904;SDS011;5505;51.450;9.254;2023-08-17T21:18:28;23.13;;;19.50;;
10904;SDS011;5505;51.450;9.254;2023-08-17T21:21:14;21.40;;;19.30;;
10904;SDS011;5505;51.450;9.254;2023-08-17T21:24:03;20.00;;;17.73;;
10904;SDS011;5505;51.450;9.254;2023-08-17T21:26:50;20.37;;;18.00;;
10904;SDS011;5505;51.450;9.254;2023-08-17T21:29:37;19.87;;;17.80;;
10904;SDS011;5505;51.450;9.254;2023-08-17T21:32:23;19.20;;;17.20;;
10904;SDS011;5505;51.450;9.254;2023-08-17T21:35:10;19.60;;;17.07;;
10904;SDS011;5505;51.450;9.254;2023-08-17T21:37:57;20.10;;;17.97;;
10904;SDS011;5505;51.450;9.254;2023-08-17T21:40:45;18.80;;;16.77;;
10904;SDS011;5505;51.450;9.254;2023-08-17T21:43:32;19.40;;;17.53;;
10904;SDS011;5505;51.450;9.254;2023-08-17T21:46:19;19.13;;;16.87;;